Terminal Aerodrome Forecast
Issued by NWS

Home | Current Version | Previous Version | Text Only | Print | Product List | Glossary On
Versions: 1 2 3 4 5 6 7 8 9 10 11 12 13 14 15 16 17 18
000
FTUS41 KBTV 202300
TAFSLK
TAF
KSLK 202330Z 2100/2124 VRB03KT P6SM VCSH SCT025 OVC040
      TEMPO 2100/2103 6SM -SHRA BR BKN025
     FM210300 VRB03KT P6SM -SHRA SCT025 OVC040
     FM210600 08004KT P6SM -RA BKN025 OVC040
     FM211200 06005KT 5SM -RA BR BKN020 OVC035=

USA.gov is the U.S. government's official web portal to all federal, state and local government web resources and services.